Terminal Aerodrome Forecast
Issued by NWS Jackson, KY

Home | Current Version | Previous Version | Text Only | Print | Product List | Glossary On
Versions: 1 2 3 4 5 6 7 8 9 10 11 12 13 14 15 16 17 18 19 20 21
000
FTUS43 KJKL 161248 AAA
TAFJKL
TAF AMD
KJKL 161248Z 1613/1712 00000KT 1 1/2SM +TSRA VCTS BKN035CB OVC070
      TEMPO 1613/1617 5SM TSRA BR BKN015CB
     FM161700 16007KT P6SM VCTS SCT015CB BKN040
     FM170200 18005KT P6SM VCSH BKN040
     FM170800 21005KT 5SM BR BKN020=

USA.gov is the U.S. government's official web portal to all federal, state and local government web resources and services.